createdAt,value
2023-03-12T00:00:10.693Z,10.10
2023-03-12T00:05:32.852Z,9.10
2023-03-12T00:10:35.349Z,10.10
2023-03-12T00:15:38.667Z,9.50
2023-03-12T00:20:40.433Z,8.80
2023-03-12T00:25:44.194Z,8.40
2023-03-12T00:30:47.359Z,9.10
2023-03-12T00:35:49.274Z,10.50
2023-03-12T00:40:51.115Z,8.00
2023-03-12T00:45:53.497Z,8.30
2023-03-12T00:50:55.476Z,5.20
2023-03-12T00:55:57.462Z,8.60
2023-03-12T01:00:59.512Z,12.20
2023-03-12T01:06:01.413Z,8.40
2023-03-12T01:11:03.702Z,7.70
2023-03-12T01:16:06.168Z,9.30
2023-03-12T01:21:07.986Z,9.20
2023-03-12T01:26:09.741Z,8.10
2023-03-12T01:31:15.358Z,8.50
2023-03-12T01:36:26.137Z,7.40
2023-03-12T01:41:32.449Z,7.30
2023-03-12T01:46:39.873Z,10.80
2023-03-12T01:51:47.280Z,7.80
2023-03-12T01:56:50.221Z,7.90
2023-03-12T02:01:52.670Z,7.50
2023-03-12T02:06:54.443Z,9.10
2023-03-12T02:11:56.230Z,9.90
2023-03-12T02:16:58.405Z,5.60
2023-03-12T02:22:01.305Z,8.50
2023-03-12T02:27:05.024Z,10.40
2023-03-12T02:32:09.167Z,7.70
2023-03-12T02:37:11.036Z,6.80
2023-03-12T02:42:12.908Z,13.60
2023-03-12T02:47:15.399Z,7.20
2023-03-12T02:52:17.283Z,7.00
2023-03-12T02:57:19.155Z,6.00
2023-03-12T03:02:21.032Z,5.60
2023-03-12T03:07:22.930Z,7.20
2023-03-12T03:12:24.681Z,8.70
2023-03-12T03:17:26.970Z,4.30
2023-03-12T03:22:28.749Z,4.40
2023-03-12T03:27:30.527Z,3.70
2023-03-12T03:32:32.360Z,5.00
2023-03-12T03:37:34.175Z,3.10
2023-03-12T03:42:36.046Z,4.40
2023-03-12T03:47:38.518Z,3.70
2023-03-12T03:52:40.210Z,2.80
2023-03-12T03:57:41.877Z,2.70
2023-03-12T04:02:44.685Z,5.60
2023-03-12T04:07:47.169Z,2.20
2023-03-12T04:12:49.451Z,2.00
2023-03-12T04:17:51.273Z,3.20
2023-03-12T04:22:53.513Z,2.00
2023-03-12T04:27:55.186Z,4.90
2023-03-12T04:32:56.863Z,2.60
2023-03-12T04:38:01.197Z,2.40
2023-03-12T04:43:02.865Z,4.30
2023-03-12T04:48:05.979Z,3.50
2023-03-12T04:53:07.715Z,7.40
2023-03-12T04:58:09.827Z,2.40
2023-03-12T05:03:11.568Z,5.20
2023-03-12T05:08:13.704Z,2.40
2023-03-12T05:13:17.208Z,3.00
2023-03-12T05:18:20.927Z,2.80
2023-03-12T05:23:22.793Z,4.80
2023-03-12T05:28:27.826Z,3.00
2023-03-12T05:33:29.725Z,2.10
2023-03-12T05:38:31.709Z,3.10
2023-03-12T05:43:34.200Z,3.20
2023-03-12T05:48:36.683Z,3.20
2023-03-12T05:53:38.358Z,3.80
2023-03-12T05:58:41.153Z,3.70
2023-03-12T06:03:43.219Z,3.10
2023-03-12T06:08:45.822Z,4.70
2023-03-12T06:13:48.008Z,6.60
2023-03-12T06:18:57.051Z,1.30
2023-03-12T06:23:59.854Z,4.60
2023-03-12T06:29:01.620Z,3.50
2023-03-12T06:34:03.911Z,2.30
2023-03-12T06:39:05.988Z,4.60
2023-03-12T06:44:08.175Z,2.10
2023-03-12T06:49:11.177Z,3.10
2023-03-12T06:59:15.135Z,3.00
2023-03-12T07:04:17.222Z,2.40
2023-03-12T07:09:19.915Z,2.30
2023-03-12T07:19:23.592Z,3.80
2023-03-12T07:24:26.168Z,3.70
2023-03-12T07:29:28.042Z,22.30
2023-03-12T07:34:30.356Z,8.70
2023-03-12T07:39:32.905Z,2.70
2023-03-12T07:44:36.384Z,39.30
2023-03-12T07:49:41.199Z,8.30
2023-03-12T07:54:43.553Z,8.80
2023-03-12T07:59:46.906Z,5.20
2023-03-12T08:04:49.221Z,2.60
2023-03-12T08:09:52.084Z,3.90
2023-03-12T08:14:54.408Z,2.50
2023-03-12T08:19:58.280Z,3.60
2023-03-12T08:25:00.562Z,5.50
2023-03-12T08:30:05.003Z,4.10
2023-03-12T08:35:08.422Z,4.70
2023-03-12T08:40:14.616Z,5.40
2023-03-12T08:45:18.177Z,4.00
2023-03-12T08:55:27.907Z,3.60
2023-03-12T09:00:30.795Z,2.80
2023-03-12T09:05:33.190Z,3.70
2023-03-12T09:10:36.700Z,4.80
2023-03-12T09:15:39.095Z,5.60
2023-03-12T09:20:43.120Z,3.20
2023-03-12T09:25:46.335Z,4.20
2023-03-12T09:30:48.951Z,4.20
2023-03-12T09:35:58.939Z,3.50
2023-03-12T09:41:03.005Z,1.80
2023-03-12T09:46:15.708Z,5.20
2023-03-12T09:51:28.162Z,3.40
2023-03-12T09:56:31.063Z,3.50
2023-03-12T10:07:11.710Z,4.10
2023-03-12T10:12:17.298Z,4.70
2023-03-12T10:17:31.309Z,7.20
2023-03-12T10:22:59.607Z,6.40
2023-03-12T10:28:27.797Z,6.50
2023-03-12T10:33:41.454Z,6.30
2023-03-12T10:38:43.630Z,6.40
2023-03-12T10:43:45.816Z,4.80
2023-03-12T10:48:47.998Z,4.00
2023-03-12T10:53:51.922Z,3.10
2023-03-12T10:58:54.122Z,5.70
2023-03-12T11:04:14.727Z,12.70
2023-03-12T11:09:19.364Z,7.30
2023-03-12T11:14:24.837Z,4.00
2023-03-12T11:19:26.807Z,2.60
2023-03-12T11:24:29.805Z,6.00
2023-03-12T11:29:32.887Z,7.80
2023-03-12T11:39:43.633Z,4.90
2023-03-12T11:44:59.642Z,3.30
2023-03-12T11:50:23.942Z,11.10
2023-03-12T11:55:38.619Z,5.10
2023-03-12T12:00:51.968Z,9.20
2023-03-12T12:11:16.605Z,4.30
2023-03-12T12:16:46.599Z,2.00
2023-03-12T12:22:27.839Z,4.50
2023-03-12T12:27:36.684Z,6.50
2023-03-12T12:32:44.733Z,3.90
2023-03-12T12:38:19.038Z,7.90
2023-03-12T12:43:31.882Z,4.40
2023-03-12T12:48:39.686Z,5.50
2023-03-12T12:53:53.545Z,3.60
2023-03-12T12:59:33.683Z,3.80
2023-03-12T13:04:40.080Z,3.30
2023-03-12T13:09:53.146Z,5.40
2023-03-12T13:14:57.267Z,3.40
2023-03-12T13:20:27.900Z,5.00
2023-03-12T13:25:45.778Z,2.70
2023-03-12T13:30:54.250Z,11.00
2023-03-12T13:36:05.493Z,10.90
2023-03-12T13:41:09.323Z,13.80
2023-03-12T13:46:37.563Z,11.00
2023-03-12T13:51:55.222Z,19.40
2023-03-12T13:57:02.068Z,13.10
2023-03-12T14:02:15.311Z,7.40
2023-03-12T14:07:48.310Z,9.70
2023-03-12T14:13:05.747Z,7.30
2023-03-12T14:18:22.162Z,10.70
2023-03-12T14:23:34.281Z,9.40
2023-03-12T14:28:41.290Z,17.80
2023-03-12T14:34:16.055Z,11.70
2023-03-12T14:39:18.859Z,10.30
2023-03-12T14:44:27.249Z,6.60
2023-03-12T14:49:31.059Z,6.40
2023-03-12T14:54:33.204Z,5.40
2023-03-12T14:59:37.290Z,6.60
2023-03-12T15:04:40.865Z,8.40
2023-03-12T15:09:46.300Z,7.70
2023-03-12T15:14:52.437Z,8.70
2023-03-12T15:19:56.873Z,23.40
2023-03-12T15:25:15.956Z,15.50
2023-03-12T15:30:25.795Z,28.30
2023-03-12T15:35:32.193Z,28.20
2023-03-12T15:40:34.381Z,36.10
2023-03-12T15:45:38.608Z,34.60
2023-03-12T15:50:43.459Z,47.20
2023-03-12T15:55:59.279Z,96.30
2023-03-12T16:01:12.664Z,155.10
2023-03-12T16:06:17.874Z,62.70
2023-03-12T16:11:26.220Z,72.10
2023-03-12T16:16:28.356Z,215.20
2023-03-12T16:21:30.469Z,157.00
2023-03-12T16:26:35.248Z,102.80
2023-03-12T16:31:37.623Z,43.70
2023-03-12T16:36:39.422Z,31.30
2023-03-12T16:41:42.167Z,18.80
2023-03-12T16:46:44.752Z,35.20
2023-03-12T16:51:48.069Z,11.60
2023-03-12T16:56:50.675Z,15.10
2023-03-12T17:01:54.686Z,13.50
2023-03-12T17:06:56.765Z,10.80
2023-03-12T17:11:58.967Z,17.60
2023-03-12T17:17:00.975Z,33.50
2023-03-12T17:22:04.146Z,17.50
2023-03-12T17:32:08.919Z,18.10
2023-03-12T17:37:10.993Z,30.10
2023-03-12T17:42:13.027Z,51.40
2023-03-12T17:47:15.792Z,24.30
2023-03-12T17:52:19.753Z,17.40
2023-03-12T17:57:24.969Z,29.40
2023-03-12T18:02:29.527Z,46.30
2023-03-12T18:07:34.711Z,22.30
2023-03-12T18:12:40.944Z,26.10
2023-03-12T18:17:50.673Z,20.30
2023-03-12T18:22:53.696Z,20.70
2023-03-12T18:27:56.836Z,11.90
2023-03-12T18:38:01.698Z,19.90
2023-03-12T18:43:03.866Z,64.30
2023-03-12T18:48:06.891Z,165.10
2023-03-12T18:53:09.261Z,225.10
2023-03-12T18:58:11.853Z,210.80
2023-03-12T19:03:15.022Z,262.40
2023-03-12T19:08:20.420Z,306.30
2023-03-12T19:13:23.457Z,348.70
2023-03-12T19:18:26.332Z,292.00
2023-03-12T19:23:29.946Z,228.60
2023-03-12T19:28:34.119Z,186.40
2023-03-12T19:33:37.600Z,196.20
2023-03-12T19:38:40.080Z,208.50
2023-03-12T19:43:43.310Z,231.70
2023-03-12T19:48:46.391Z,204.60
2023-03-12T19:58:51.574Z,291.30
2023-03-12T20:03:56.231Z,237.70
2023-03-12T20:08:58.601Z,359.50
2023-03-12T20:14:00.477Z,516.60
2023-03-12T20:19:04.499Z,508.80
2023-03-12T20:24:06.897Z,338.70
2023-03-12T20:29:09.487Z,656.30
2023-03-12T20:34:11.770Z,442.70
2023-03-12T20:39:14.115Z,430.10
2023-03-12T20:44:18.395Z,293.80
2023-03-12T20:49:21.187Z,308.80
2023-03-12T20:54:23.685Z,246.40
2023-03-12T20:59:28.835Z,255.30
2023-03-12T21:04:31.230Z,131.10
2023-03-12T21:09:34.247Z,110.00
2023-03-12T21:14:38.632Z,111.80
2023-03-12T21:19:41.771Z,116.60
2023-03-12T21:24:43.861Z,99.80
2023-03-12T21:29:45.530Z,109.00
2023-03-12T21:34:48.088Z,197.20
2023-03-12T21:39:50.506Z,140.30
2023-03-12T21:44:52.901Z,116.70
2023-03-12T21:49:56.211Z,58.10
2023-03-12T21:54:58.101Z,38.60
2023-03-12T21:59:59.845Z,29.70
2023-03-12T22:05:01.533Z,94.80
2023-03-12T22:10:05.761Z,80.40
2023-03-12T22:15:09.613Z,118.90
2023-03-12T22:20:12.178Z,187.40
2023-03-12T22:25:14.058Z,166.80
2023-03-12T22:30:16.460Z,134.30
2023-03-12T22:35:25.282Z,698.80
2023-03-12T22:40:27.468Z,105.40
2023-03-12T22:45:29.242Z,156.00
2023-03-12T22:50:32.732Z,59.40
2023-03-12T23:00:36.205Z,248.50
2023-03-12T23:05:37.974Z,162.00
2023-03-12T23:10:39.951Z,129.80
2023-03-12T23:15:42.168Z,119.40
2023-03-12T23:20:45.245Z,73.50
2023-03-12T23:25:53.173Z,60.20
2023-03-12T23:31:07.643Z,54.50
2023-03-12T23:36:15.760Z,60.70
2023-03-12T23:41:23.265Z,30.20
2023-03-12T23:46:27.018Z,66.60
2023-03-12T23:51:32.408Z,61.20
2023-03-12T23:56:36.984Z,68.60
